Time;durP1;ratioP1;P1;durP2;ratioP2;P2;SDS_P1;SDS_P2;PMS_P1;PMS_P2;Temp;Humidity;BMP_temperature;BMP_pressure;BME280_temperature;BME280_humidity;BME280_pressure;Samples;Min_cycle;Max_cycle;Signal;HPM_P1;HPM_P2
2022/11/15 00:00:11;;;;;;;;;;;;;;;14.47;44.52;99558.63;4513438;31;35088;-89
2022/11/15 00:02:57;;;;;;;;;;;;;;;14.58;44.26;99562.16;4513315;31;34095;-87
2022/11/15 00:05:43;;;;;;;;;;;;;;;14.60;44.29;99559.53;4515198;31;34178;-86
2022/11/15 00:08:30;;;;;;;;;;;;;;;14.39;44.00;99559.44;4513677;31;34005;-93
2022/11/15 00:11:15;;;;;;;;;;;;;;;14.46;44.00;99554.25;4513258;31;34094;-90
2022/11/15 00:14:04;;;;;;;;;;;;;;;14.45;44.08;99554.25;4507157;31;35285;-87
2022/11/15 00:16:50;;;;;;;;;;;;;;;14.65;43.56;99559.56;4515211;31;34369;-84
2022/11/15 00:19:35;;;;;;;;;;;;;;;13.90;44.68;99564.41;4513511;31;33926;-87
2022/11/15 00:22:21;;;;;;;;;;;;;;;14.42;43.88;99559.44;4513034;31;34887;-88
2022/11/15 00:25:07;;;;;;;;;;;;;;;14.73;43.18;99557.81;4514928;31;33947;-94
2022/11/15 00:27:56;;;;;;;;;;;;;;;14.39;43.60;99557.69;4515714;31;34380;-86
2022/11/15 00:30:42;;;;;;;;;;;;;;;14.23;44.35;99558.50;4507987;31;34299;-86
2022/11/15 00:33:28;;;;;;;;;;;;;;;14.37;44.15;99554.22;4515514;31;34263;-87
2022/11/15 00:36:14;;;;;;;;;;;;;;;14.17;44.87;99558.47;4512690;31;35240;-92
2022/11/15 00:39:00;;;;;;;;;;;;;;;14.29;44.77;99558.53;4498963;31;34931;-85
2022/11/15 00:41:45;;;;;;;;;;;;;;;14.32;44.75;99545.53;4513765;31;33424;-92
2022/11/15 00:44:31;;;;;;;;;;;;;;;14.43;44.37;99549.00;4515608;31;33821;-86
2022/11/15 00:47:17;;;;;;;;;;;;;;;14.18;45.20;99555.03;4515375;31;35202;-93
2022/11/15 00:50:04;;;;;;;;;;;;;;;14.10;45.39;99548.03;4514159;31;34352;-91
2022/11/15 00:52:50;;;;;;;;;;;;;;;14.45;44.87;99547.28;4499053;31;33194;-89
2022/11/15 00:55:36;;;;;;;;;;;;;;;14.51;44.74;99544.75;4507138;31;34204;-92
2022/11/15 00:58:21;;;;;;;;;;;;;;;14.69;44.34;99543.03;4506882;31;34105;-91
2022/11/15 01:01:08;;;;;;;;;;;;;;;14.90;43.74;99534.38;4508676;31;34019;-92
2022/11/15 01:03:54;;;;;;;;;;;;;;;14.29;44.65;99529.84;4514551;31;32890;-89
2022/11/15 01:06:45;;;;;;;;;;;;;;;14.59;44.41;99527.38;4513157;31;33875;-92
2022/11/15 01:09:31;;;;;;;;;;;;;;;14.73;44.44;99526.50;4511680;31;34110;-85
2022/11/15 01:12:17;;;;;;;;;;;;;;;14.73;44.57;99529.13;4515253;31;34225;-88
2022/11/15 01:15:03;;;;;;;;;;;;;;;14.96;44.10;99522.19;4502663;31;34404;-87
2022/11/15 01:17:49;;;;;;;;;;;;;;;15.12;43.87;99520.47;4509126;31;33686;-87
2022/11/15 01:20:38;;;;;;;;;;;;;;;15.13;43.91;99513.50;4507871;31;34369;-90
2022/11/15 01:23:24;;;;;;;;;;;;;;;15.14;44.09;99516.09;4512484;31;34255;-87
2022/11/15 01:26:12;;;;;;;;;;;;;;;15.45;43.42;99506.50;4503462;31;33107;-85
2022/11/15 01:28:57;;;;;;;;;;;;;;;15.39;43.54;99510.88;4499869;31;34291;-86
2022/11/15 01:31:43;;;;;;;;;;;;;;;15.18;44.00;99506.53;4499244;31;33687;-93
2022/11/15 01:34:29;;;;;;;;;;;;;;;15.10;44.06;99503.91;4499779;31;34005;-87
2022/11/15 01:37:15;;;;;;;;;;;;;;;15.22;43.92;99498.69;4512661;31;33510;-92
2022/11/15 01:40:00;;;;;;;;;;;;;;;15.21;44.14;99506.53;4504800;31;35314;-93
2022/11/15 01:42:46;;;;;;;;;;;;;;;15.03;44.43;99503.03;4509205;31;34494;-86
2022/11/15 01:45:32;;;;;;;;;;;;;;;15.16;44.15;99503.06;4506723;31;33651;-87
2022/11/15 01:48:18;;;;;;;;;;;;;;;14.67;45.19;99489.97;4506936;31;33358;-86
2022/11/15 01:51:05;;;;;;;;;;;;;;;14.97;44.48;99497.84;4513914;31;35156;-87
2022/11/15 01:53:52;;;;;;;;;;;;;;;14.96;44.60;99500.44;4513729;31;34423;-89
2022/11/15 01:56:38;;;;;;;;;;;;;;;15.23;44.12;99496.97;4504882;31;34228;-87
2022/11/15 01:59:23;;;;;;;;;;;;;;;14.94;44.55;99494.34;4512635;31;34263;-88
2022/11/15 02:02:09;;;;;;;;;;;;;;;14.88;44.73;99497.81;4512347;31;33992;-87
2022/11/15 02:04:55;;;;;;;;;;;;;;;15.23;44.11;99491.75;4500580;31;33922;-87
2022/11/15 02:07:40;;;;;;;;;;;;;;;15.38;43.86;99478.66;4501369;31;33977;-91
2022/11/15 02:10:27;;;;;;;;;;;;;;;15.24;44.11;99469.97;4511398;31;33245;-92
2022/11/15 02:13:13;;;;;;;;;;;;;;;14.79;44.98;99472.59;4510301;31;34984;-87
2022/11/15 02:16:04;;;;;;;;;;;;;;;14.79;45.25;99469.13;4497273;31;34360;-88
2022/11/15 02:18:53;;;;;;;;;;;;;;;15.19;44.62;99471.69;4502372;31;33902;-87
2022/11/15 02:21:56;;;;;;;;;;;;;;;15.21;44.70;99465.59;4505293;31;34678;-93
2022/11/15 02:24:50;;;;;;;;;;;;;;;15.43;44.12;99456.00;4507471;31;34132;-89
2022/11/15 02:27:51;;;;;;;;;;;;;;;15.49;43.98;99462.94;4498323;31;34538;-91
2022/11/15 02:31:06;;;;;;;;;;;;;;;15.20;44.52;99468.25;4497250;31;33884;-86
2022/11/15 02:33:52;;;;;;;;;;;;;;;15.39;44.10;99459.50;4496346;31;33456;-93
2022/11/15 02:36:45;;;;;;;;;;;;;;;15.02;44.64;99462.13;4497818;31;32958;-86
2022/11/15 02:39:31;;;;;;;;;;;;;;;15.19;44.11;99458.63;4501504;31;35443;-89
2022/11/15 02:45:31;;;;;;;;;;;;;;;15.20;43.72;99456.03;4501215;31;32887;-89
2022/11/15 02:48:16;;;;;;;;;;;;;;;14.59;45.42;99464.75;4509350;31;33409;-91
2022/11/15 02:51:02;;;;;;;;;;;;;;;13.82;47.48;99457.53;4496892;31;34817;-93
2022/11/15 02:53:47;;;;;;;;;;;;;;;14.51;45.59;99450.81;4497527;31;34999;-93
2022/11/15 02:56:33;;;;;;;;;;;;;;;14.52;45.50;99463.00;4512133;31;33469;-89
2022/11/15 02:59:21;;;;;;;;;;;;;;;14.65;45.20;99455.19;4505030;31;34450;-86
2022/11/15 03:02:16;;;;;;;;;;;;;;;14.94;44.34;99452.59;4500269;31;34578;-86
2022/11/15 03:05:08;;;;;;;;;;;;;;;14.83;44.72;99452.56;4503136;31;35079;-87
2022/11/15 03:07:54;;;;;;;;;;;;;;;14.94;44.57;99449.97;4516317;31;34207;-86
2022/11/15 03:10:56;;;;;;;;;;;;;;;15.03;44.46;99450.81;4507115;31;34284;-87
2022/11/15 03:13:45;;;;;;;;;;;;;;;14.82;44.88;99453.47;4498978;31;35175;-91
2022/11/15 03:16:33;;;;;;;;;;;;;;;14.78;44.95;99449.09;4501992;31;34276;-93
2022/11/15 03:19:19;;;;;;;;;;;;;;;14.90;44.84;99448.22;4511989;31;34785;-86
2022/11/15 03:22:05;;;;;;;;;;;;;;;15.26;44.22;99444.69;4499621;31;33938;-93
2022/11/15 03:24:55;;;;;;;;;;;;;;;15.38;44.01;99436.87;4502614;31;35056;-94
2022/11/15 03:27:42;;;;;;;;;;;;;;;15.45;43.92;99435.94;4514538;31;34102;-92
2022/11/15 03:30:27;;;;;;;;;;;;;;;15.33;44.07;99426.41;4507301;31;34206;-93
2022/11/15 03:33:13;;;;;;;;;;;;;;;15.34;44.03;99419.44;4498672;31;35097;-86
2022/11/15 03:35:58;;;;;;;;;;;;;;;15.48;43.88;99422.88;4501868;31;35217;-87
2022/11/15 03:38:43;;;;;;;;;;;;;;;15.46;43.65;99423.78;4499636;31;34370;-87
2022/11/15 03:41:37;;;;;;;;;;;;;;;15.35;44.05;99415.09;4503819;31;33987;-91
2022/11/15 03:44:31;;;;;;;;;;;;;;;13.76;46.94;99413.22;4498865;31;33892;-88
2022/11/15 03:47:36;;;;;;;;;;;;;;;13.11;48.11;99404.19;4498419;31;34406;-86
2022/11/15 03:50:22;;;;;;;;;;;;;;;12.94;48.62;99414.47;4504523;31;34912;-91
2022/11/15 03:53:08;;;;;;;;;;;;;;;13.89;46.71;99401.97;4499849;31;33389;-87
2022/11/15 03:55:54;;;;;;;;;;;;;;;14.41;45.74;99420.34;4499822;31;34286;-86
2022/11/15 03:58:39;;;;;;;;;;;;;;;14.29;46.29;99417.72;4499814;31;34364;-86
2022/11/15 04:01:25;;;;;;;;;;;;;;;13.44;48.08;99407.84;4510189;31;34136;-91
2022/11/15 04:04:14;;;;;;;;;;;;;;;13.06;48.86;99400.66;4515446;31;33121;-86
2022/11/15 04:07:00;;;;;;;;;;;;;;;12.29;50.16;99404.38;4515336;31;35274;-93
2022/11/15 04:10:05;;;;;;;;;;;;;;;12.34;50.50;99397.50;4512247;31;34096;-87
2022/11/15 04:12:51;;;;;;;;;;;;;;;12.94;49.41;99398.84;4499864;31;34425;-87
2022/11/15 04:15:37;;;;;;;;;;;;;;;13.61;48.18;99407.06;4500808;31;34299;-88
2022/11/15 04:18:24;;;;;;;;;;;;;;;12.62;50.18;99406.44;4515697;31;34345;-86
2022/11/15 04:24:13;;;;;;;;;;;;;;;12.61;50.24;99420.25;4515097;31;34168;-92
2022/11/15 04:26:59;;;;;;;;;;;;;;;13.01;49.43;99424.06;4514754;31;33689;-92
2022/11/15 04:29:45;;;;;;;;;;;;;;;13.82;47.58;99413.22;4507214;31;35145;-86
2022/11/15 04:32:31;;;;;;;;;;;;;;;13.36;48.37;99405.22;4508048;31;34220;-92
2022/11/15 04:35:16;;;;;;;;;;;;;;;13.53;47.85;99393.16;4511487;31;34304;-93
2022/11/15 04:38:03;;;;;;;;;;;;;;;13.42;48.31;99379.22;4515642;31;33246;-89
2022/11/15 04:40:48;;;;;;;;;;;;;;;12.76;49.49;99390.91;4513446;31;34366;-89
2022/11/15 04:43:34;;;;;;;;;;;;;;;12.88;49.60;99373.66;4514541;31;34220;-86
2022/11/15 04:46:21;;;;;;;;;;;;;;;13.19;48.51;99371.25;4506943;31;33824;-86
2022/11/15 04:49:07;;;;;;;;;;;;;;;13.91;46.91;99378.53;4515511;31;33110;-89
2022/11/15 04:51:53;;;;;;;;;;;;;;;14.22;46.40;99374.25;4505575;31;34106;-93
2022/11/15 04:54:42;;;;;;;;;;;;;;;13.08;48.96;99381.59;4513399;31;34145;-85
2022/11/15 04:57:28;;;;;;;;;;;;;;;13.29;48.35;99388.66;4514969;31;34327;-90
2022/11/15 05:00:14;;;;;;;;;;;;;;;14.04;46.50;99381.16;4506705;31;33353;-92
2022/11/15 05:06:05;;;;;;;;;;;;;;;14.88;45.09;99377.72;4507571;31;34259;-91
2022/11/15 05:08:51;;;;;;;;;;;;;;;15.21;44.53;99375.94;4502332;31;33961;-88
2022/11/15 05:11:36;;;;;;;;;;;;;;;15.02;45.28;99385.56;4514048;31;33919;-93
2022/11/15 05:14:22;;;;;;;;;;;;;;;15.24;44.81;99382.03;4506722;31;34160;-93
2022/11/15 05:17:08;;;;;;;;;;;;;;;15.60;44.09;99384.50;4507708;31;35249;-87
2022/11/15 05:19:54;;;;;;;;;;;;;;;15.57;44.29;99374.97;4506448;31;34987;-86
2022/11/15 05:22:39;;;;;;;;;;;;;;;15.75;43.87;99374.03;4511256;31;34144;-94
2022/11/15 05:25:25;;;;;;;;;;;;;;;15.91;43.51;99375.69;4509315;31;35061;-91
2022/11/15 05:28:11;;;;;;;;;;;;;;;15.79;43.78;99367.91;4510098;31;34384;-92
2022/11/15 05:31:01;;;;;;;;;;;;;;;15.73;43.94;99362.72;4502382;31;34962;-93
2022/11/15 05:33:46;;;;;;;;;;;;;;;15.29;44.67;99355.88;4511271;31;33558;-91
2022/11/15 05:36:37;;;;;;;;;;;;;;;15.33;44.33;99355.00;4502440;31;33008;-91
2022/11/15 05:39:22;;;;;;;;;;;;;;;14.25;46.91;99358.59;4510405;31;34387;-90
2022/11/15 05:42:09;;;;;;;;;;;;;;;14.68;46.03;99358.63;4503111;31;33881;-86
2022/11/15 05:44:55;;;;;;;;;;;;;;;13.98;47.86;99362.00;4511171;31;33461;-87
2022/11/15 05:47:41;;;;;;;;;;;;;;;14.15;47.30;99364.66;4514972;31;34844;-86
2022/11/15 05:50:26;;;;;;;;;;;;;;;13.68;48.30;99361.09;4507421;31;34056;-90
2022/11/15 05:53:13;;;;;;;;;;;;;;;12.97;50.32;99375.44;4497345;31;33986;-87
2022/11/15 05:55:58;;;;;;;;;;;;;;;12.13;52.75;99380.84;4511008;31;33237;-89
2022/11/15 05:58:44;;;;;;;;;;;;;;;11.81;54.18;99375.25;4513766;31;34266;-88
2022/11/15 06:01:30;;;;;;;;;;;;;;;11.72;55.01;99369.09;4508812;31;34411;-90
2022/11/15 06:04:16;;;;;;;;;;;;;;;12.16;53.58;99362.69;4508196;31;35064;-90
2022/11/15 06:07:01;;;;;;;;;;;;;;;11.72;55.01;99364.78;4505310;31;32960;-93
2022/11/15 06:09:47;;;;;;;;;;;;;;;12.87;51.92;99364.09;4506556;31;33774;-87
2022/11/15 06:12:33;;;;;;;;;;;;;;;13.03;51.23;99364.19;4497802;31;35052;-92
2022/11/15 06:15:19;;;;;;;;;;;;;;;13.30;50.90;99364.41;4504941;31;34367;-92
2022/11/15 06:18:04;;;;;;;;;;;;;;;13.27;50.93;99360.91;4512818;31;33229;-87
2022/11/15 06:20:50;;;;;;;;;;;;;;;13.46;50.53;99364.47;4514177;31;34299;-87
2022/11/15 06:23:36;;;;;;;;;;;;;;;13.58;50.19;99369.72;4504140;31;35240;-87
2022/11/15 06:26:21;;;;;;;;;;;;;;;12.47;52.81;99381.16;4499175;31;34182;-91
2022/11/15 06:29:07;;;;;;;;;;;;;;;12.89;51.84;99371.94;4505469;31;33276;-93
2022/11/15 06:31:53;;;;;;;;;;;;;;;11.97;54.50;99380.66;4507406;31;34125;-84
2022/11/15 06:34:39;;;;;;;;;;;;;;;12.52;52.99;99386.38;4506156;31;34980;-86
2022/11/15 06:37:25;;;;;;;;;;;;;;;11.99;54.53;99387.62;4508489;31;34160;-92
2022/11/15 06:40:11;;;;;;;;;;;;;;;13.41;51.11;99372.28;4502039;31;33833;-87
2022/11/15 06:42:59;;;;;;;;;;;;;;;12.87;52.22;99373.63;4513099;31;32920;-86
2022/11/15 06:45:44;;;;;;;;;;;;;;;12.02;54.65;99385.06;4515530;31;33968;-87
2022/11/15 06:48:30;;;;;;;;;;;;;;;12.39;53.32;99375.87;4500526;31;34229;-87
2022/11/15 06:51:16;;;;;;;;;;;;;;;12.75;52.95;99379.62;4501121;31;32960;-93
2022/11/15 06:54:02;;;;;;;;;;;;;;;12.64;52.52;99386.47;4502140;31;34379;-87
2022/11/15 06:56:48;;;;;;;;;;;;;;;12.06;54.62;99381.63;4509786;31;35272;-93
2022/11/15 06:59:33;;;;;;;;;;;;;;;11.53;56.26;99374.09;4505803;31;33803;-91
2022/11/15 07:02:25;;;;;;;;;;;;;;;11.89;55.48;99377.97;4502232;31;34309;-87
2022/11/15 07:05:11;;;;;;;;;;;;;;;12.60;54.12;99377.78;4502954;31;32695;-93
2022/11/15 07:07:57;;;;;;;;;;;;;;;12.00;55.47;99375.50;4509578;31;33812;-93
2022/11/15 07:10:43;;;;;;;;;;;;;;;11.66;56.79;99368.16;4500035;31;35042;-86
2022/11/15 07:13:30;;;;;;;;;;;;;;;11.36;57.78;99360.00;4509419;31;34407;-86
2022/11/15 07:16:16;;;;;;;;;;;;;;;11.58;57.50;99362.00;4512124;31;34204;-86
2022/11/15 07:19:01;;;;;;;;;;;;;;;12.09;55.97;99355.69;4506995;31;34217;-91
2022/11/15 07:21:47;;;;;;;;;;;;;;;12.10;56.23;99359.16;4503990;31;33619;-88
2022/11/15 07:24:33;;;;;;;;;;;;;;;11.66;57.14;99360.37;4514164;31;34043;-87
2022/11/15 07:27:19;;;;;;;;;;;;;;;11.37;58.37;99359.19;4510105;31;34894;-89
2022/11/15 07:30:05;;;;;;;;;;;;;;;12.41;55.50;99353.34;4500052;31;34402;-86
2022/11/15 07:33:00;;;;;;;;;;;;;;;12.62;54.46;99344.87;4500256;31;34182;-86
2022/11/15 07:35:48;;;;;;;;;;;;;;;13.20;53.41;99343.47;4503619;31;32628;-86
2022/11/15 07:38:34;;;;;;;;;;;;;;;13.21;53.16;99345.22;4504835;31;34961;-89
2022/11/15 07:41:27;;;;;;;;;;;;;;;13.11;53.86;99355.59;4503103;31;34250;-86
2022/11/15 07:44:12;;;;;;;;;;;;;;;13.10;53.13;99359.03;4505378;31;34017;-88
2022/11/15 07:46:58;;;;;;;;;;;;;;;13.14;53.23;99366.03;4515963;31;33167;-90
2022/11/15 07:49:45;;;;;;;;;;;;;;;13.27;52.96;99361.78;4510412;31;34067;-87
2022/11/15 07:52:31;;;;;;;;;;;;;;;13.76;51.47;99359.38;4498500;31;34320;-87
2022/11/15 07:55:17;;;;;;;;;;;;;;;13.10;53.49;99351.22;4500966;31;34920;-86
2022/11/15 07:58:03;;;;;;;;;;;;;;;13.30;53.21;99347.91;4506910;31;34281;-91
2022/11/15 08:00:49;;;;;;;;;;;;;;;12.71;54.49;99351.84;4507470;31;35149;-86
2022/11/15 08:03:34;;;;;;;;;;;;;;;12.24;56.13;99359.28;4507552;31;34143;-93
2022/11/15 08:06:20;;;;;;;;;;;;;;;13.80;52.59;99355.03;4503230;31;34076;-92
2022/11/15 08:09:06;;;;;;;;;;;;;;;13.00;54.50;99359.00;4510549;31;33536;-85
2022/11/15 08:11:52;;;;;;;;;;;;;;;13.12;54.18;99346.03;4512820;31;34451;-85
2022/11/15 08:14:38;;;;;;;;;;;;;;;12.41;56.50;99336.88;4499481;31;34288;-90
2022/11/15 08:17:24;;;;;;;;;;;;;;;12.56;56.29;99326.59;4507668;31;34391;-85
2022/11/15 08:20:09;;;;;;;;;;;;;;;12.37;56.42;99330.78;4515735;31;34032;-86
2022/11/15 08:22:58;;;;;;;;;;;;;;;11.57;58.67;99326.53;4512574;31;35058;-86
2022/11/15 08:25:43;;;;;;;;;;;;;;;12.16;57.35;99322.84;4509574;31;35352;-86
2022/11/15 08:28:30;;;;;;;;;;;;;;;11.64;58.12;99330.06;4501075;31;34163;-86
2022/11/15 08:31:16;;;;;;;;;;;;;;;12.70;55.58;99328.44;4513883;31;34526;-86
2022/11/15 08:34:02;;;;;;;;;;;;;;;12.51;56.11;99324.84;4499123;31;35075;-86
2022/11/15 08:36:48;;;;;;;;;;;;;;;12.62;55.85;99326.66;4509753;31;34385;-88
2022/11/15 08:39:33;;;;;;;;;;;;;;;11.18;59.74;99321.75;4509789;31;34484;-88
2022/11/15 08:42:19;;;;;;;;;;;;;;;11.60;58.69;99313.59;4480358;31;876736;-86
2022/11/15 08:45:05;;;;;;;;;;;;;;;12.49;56.71;99304.00;4499359;31;34478;-87
2022/11/15 08:47:51;;;;;;;;;;;;;;;11.66;58.81;99323.16;4500321;31;34430;-87
2022/11/15 08:50:39;;;;;;;;;;;;;;;12.26;57.13;99310.75;4499869;31;34237;-92
2022/11/15 08:53:25;;;;;;;;;;;;;;;11.84;58.07;99297.41;4500148;31;33362;-87
2022/11/15 08:56:11;;;;;;;;;;;;;;;11.59;59.43;99298.88;4498379;31;34336;-91
2022/11/15 08:58:56;;;;;;;;;;;;;;;11.27;60.54;99297.63;4499340;31;34185;-90
2022/11/15 09:01:42;;;;;;;;;;;;;;;11.57;60.31;99308.34;4499471;31;33762;-93
2022/11/15 09:04:28;;;;;;;;;;;;;;;11.86;59.13;99297.44;4499151;31;34105;-93
2022/11/15 09:07:14;;;;;;;;;;;;;;;12.20;58.47;99300.31;4499284;31;34311;-87
2022/11/15 09:09:59;;;;;;;;;;;;;;;12.33;57.99;99299.56;4499489;31;35079;-91
2022/11/15 09:12:48;;;;;;;;;;;;;;;13.01;56.10;99288.72;4499455;31;35111;-92
2022/11/15 09:15:34;;;;;;;;;;;;;;;13.25;55.24;99287.13;4499075;31;33333;-87
2022/11/15 09:18:22;;;;;;;;;;;;;;;12.70;56.56;99289.44;4499539;31;33999;-92
2022/11/15 09:21:08;;;;;;;;;;;;;;;13.00;55.79;99287.00;4499245;31;34369;-93
2022/11/15 09:23:53;;;;;;;;;;;;;;;12.45;57.79;99291.84;4499190;31;34264;-87
2022/11/15 09:26:39;;;;;;;;;;;;;;;13.72;54.17;99289.88;4499267;31;33214;-93
2022/11/15 09:29:25;;;;;;;;;;;;;;;12.57;56.45;99280.66;4499103;31;34008;-94
2022/11/15 09:32:10;;;;;;;;;;;;;;;12.20;58.30;99292.50;4499441;31;33888;-91
2022/11/15 09:34:56;;;;;;;;;;;;;;;13.00;56.05;99284.37;4498959;31;33848;-88
2022/11/15 09:37:42;;;;;;;;;;;;;;;12.78;56.55;99269.53;4498822;31;33210;-87
2022/11/15 09:40:29;;;;;;;;;;;;;;;12.85;56.80;99266.09;4499149;31;34949;-86
2022/11/15 09:43:24;;;;;;;;;;;;;;;13.99;54.14;99265.59;4499113;31;34427;-87
2022/11/15 09:46:15;;;;;;;;;;;;;;;13.79;54.05;99275.13;4498764;31;35183;-86
2022/11/15 09:48:50;;;;;;;;;;;;;;;13.01;56.54;99273.09;4499011;31;34315;-93
2022/11/15 09:51:24;;;;;;;;;;;;;;;12.74;56.39;99272.97;4498446;31;34610;-87
2022/11/15 09:53:56;;;;;;;;;;;;;;;13.00;55.91;99273.12;4498951;31;34643;-87
2022/11/15 09:56:43;;;;;;;;;;;;;;;13.32;55.19;99268.91;4497837;31;34238;-87
2022/11/15 09:59:11;;;;;;;;;;;;;;;13.51;54.83;99266.38;4497749;31;34421;-87
2022/11/15 10:01:56;;;;;;;;;;;;;;;14.00;53.18;99264.72;4498491;31;34032;-93
2022/11/15 10:04:23;;;;;;;;;;;;;;;14.11;53.08;99259.50;4497085;31;34258;-91
2022/11/15 10:07:10;;;;;;;;;;;;;;;14.22;52.49;99249.94;4497463;31;34124;-90
2022/11/15 10:09:39;;;;;;;;;;;;;;;14.07;53.07;99245.59;4500714;31;33061;-92
2022/11/15 10:12:07;;;;;;;;;;;;;;;13.58;54.18;99242.09;4499163;31;35050;-87
2022/11/15 10:14:34;;;;;;;;;;;;;;;13.91;53.05;99227.38;4499193;31;34242;-94
2022/11/15 10:17:25;;;;;;;;;;;;;;;13.38;54.96;99242.03;4499307;31;34720;-93
2022/11/15 10:19:55;;;;;;;;;;;;;;;14.04;53.11;99237.78;4495784;31;33237;-88
2022/11/15 10:22:34;;;;;;;;;;;;;;;13.96;53.55;99236.91;4500378;31;34076;-93
2022/11/15 10:25:21;;;;;;;;;;;;;;;13.42;54.74;99222.97;4498983;31;34929;-87
2022/11/15 10:27:55;;;;;;;;;;;;;;;13.76;53.78;99223.87;4500720;31;34356;-92
2022/11/15 10:30:23;;;;;;;;;;;;;;;12.87;56.37;99230.53;4500305;31;34281;-95
2022/11/15 10:32:50;;;;;;;;;;;;;;;13.10;55.06;99213.28;4500127;31;34324;-94
2022/11/15 10:35:28;;;;;;;;;;;;;;;13.19;55.41;99216.78;4498991;31;34177;-92
2022/11/15 10:38:05;;;;;;;;;;;;;;;12.66;56.19;99208.78;4500373;31;34763;-93
2022/11/15 10:40:33;;;;;;;;;;;;;;;13.55;54.44;99219.50;4499341;31;33495;-93
2022/11/15 10:43:04;;;;;;;;;;;;;;;12.67;56.92;99212.22;4500276;31;34329;-93
2022/11/15 10:45:32;;;;;;;;;;;;;;;12.70;56.80;99214.84;4500145;31;34169;-87
2022/11/15 10:48:11;;;;;;;;;;;;;;;13.59;54.60;99200.41;4500112;31;33956;-92
2022/11/15 10:50:43;;;;;;;;;;;;;;;13.51;54.99;99199.53;4500415;31;34164;-87
2022/11/15 10:53:21;;;;;;;;;;;;;;;14.18;52.90;99188.25;4498780;31;34784;-86
2022/11/15 10:55:49;;;;;;;;;;;;;;;14.44;52.47;99197.75;4500262;31;34207;-88
2022/11/15 10:58:33;;;;;;;;;;;;;;;14.18;52.84;99180.41;4499177;31;33283;-91
2022/11/15 11:01:21;;;;;;;;;;;;;;;13.99;53.52;99176.97;4485732;31;33716;-89
2022/11/15 11:04:02;;;;;;;;;;;;;;;14.45;51.66;99171.66;4500160;31;35083;-87
2022/11/15 11:06:29;;;;;;;;;;;;;;;13.94;52.90;99165.69;4498734;31;33927;-87
2022/11/15 11:08:58;;;;;;;;;;;;;;;13.02;55.98;99168.13;4500391;31;34727;-93
2022/11/15 11:11:27;;;;;;;;;;;;;;;13.17;55.59;99172.50;4498611;31;33126;-94
2022/11/15 11:13:54;;;;;;;;;;;;;;;13.44;54.51;99166.50;4498877;31;34207;-93
2022/11/15 11:16:30;;;;;;;;;;;;;;;12.87;56.33;99161.16;4499794;31;35009;-87
2022/11/15 11:19:17;;;;;;;;;;;;;;;12.97;56.42;99161.19;4499380;31;34165;-94
2022/11/15 11:21:49;;;;;;;;;;;;;;;12.96;55.84;99164.66;4498886;31;34251;-90
2022/11/15 11:24:30;;;;;;;;;;;;;;;12.55;56.79;99158.44;4500000;31;34312;-93
2022/11/15 11:27:08;;;;;;;;;;;;;;;13.40;55.02;99156.97;4498772;31;35048;-87
2022/11/15 11:29:49;;;;;;;;;;;;;;;13.62;54.45;99148.31;4498556;31;34954;-90
2022/11/15 11:32:33;;;;;;;;;;;;;;;13.12;55.31;99146.47;4498780;31;33585;-92
2022/11/15 11:35:03;;;;;;;;;;;;;;;13.39;54.58;99147.44;4500167;31;33850;-93
2022/11/15 11:37:39;;;;;;;;;;;;;;;14.33;52.22;99135.19;4499762;31;34520;-93
2022/11/15 11:40:07;;;;;;;;;;;;;;;13.70;53.39;99142.22;4498489;31;34905;-87
2022/11/15 11:42:53;;;;;;;;;;;;;;;12.92;55.36;99153.38;4499619;31;33542;-92
2022/11/15 11:45:30;;;;;;;;;;;;;;;11.34;60.83;99164.47;4498154;31;34220;-93
2022/11/15 11:48:03;;;;;;;;;;;;;;;12.01;59.44;99144.28;4499992;31;35308;-89
2022/11/15 11:50:31;;;;;;;;;;;;;;;13.43;55.37;99135.28;4499541;31;34895;-93
2022/11/15 11:53:03;;;;;;;;;;;;;;;13.55;55.05;99135.28;4498629;31;34233;-87
2022/11/15 11:55:33;;;;;;;;;;;;;;;13.23;55.37;99132.63;4498344;31;35014;-86
2022/11/15 11:58:00;;;;;;;;;;;;;;;13.42;54.38;99124.00;4498445;31;35226;-87
2022/11/15 12:00:31;;;;;;;;;;;;;;;12.64;57.21;99118.59;4499560;31;33733;-91
2022/11/15 12:03:12;;;;;;;;;;;;;;;13.52;55.01;99110.09;4498362;31;34293;-88
2022/11/15 12:05:39;;;;;;;;;;;;;;;14.07;53.60;99112.66;4498335;31;34855;-93
2022/11/15 12:08:26;;;;;;;;;;;;;;;13.43;55.19;99104.91;4499609;31;34375;-88
2022/11/15 12:10:57;;;;;;;;;;;;;;;13.44;55.41;99095.34;4499562;31;34002;-93
2022/11/15 12:13:25;;;;;;;;;;;;;;;13.45;55.05;99094.47;4498127;31;33240;-87
2022/11/15 12:15:55;;;;;;;;;;;;;;;13.21;55.93;99097.91;4500319;31;34883;-88
2022/11/15 12:18:22;;;;;;;;;;;;;;;14.38;52.77;99091.69;4499688;31;34045;-93
2022/11/15 12:20:51;;;;;;;;;;;;;;;12.70;57.05;99097.81;4499468;31;33623;-87
2022/11/15 12:23:32;;;;;;;;;;;;;;;13.72;54.45;99083.19;4499645;31;33043;-94
2022/11/15 12:26:00;;;;;;;;;;;;;;;13.39;55.35;99082.31;4499437;31;34374;-88
2022/11/15 12:28:32;;;;;;;;;;;;;;;12.91;56.63;99074.44;4499385;31;34108;-92
2022/11/15 12:31:10;;;;;;;;;;;;;;;13.65;54.84;99078.84;4498153;31;34280;-87
2022/11/15 12:33:40;;;;;;;;;;;;;;;13.61;54.77;99071.03;4499180;31;32978;-87
2022/11/15 12:36:10;;;;;;;;;;;;;;;13.37;55.39;99071.94;4499549;31;35225;-87
2022/11/15 12:38:49;;;;;;;;;;;;;;;13.22;56.23;99065.78;4499510;31;35304;-93
2022/11/15 12:41:17;;;;;;;;;;;;;;;13.29;55.71;99059.75;4499401;31;34895;-88
2022/11/15 12:43:45;;;;;;;;;;;;;;;13.96;53.98;99053.59;4497907;31;33025;-88
2022/11/15 12:46:22;;;;;;;;;;;;;;;13.83;54.62;99047.56;4499444;31;34242;-94
2022/11/15 12:48:53;;;;;;;;;;;;;;;13.25;56.00;99047.59;4498153;31;35170;-87
2022/11/15 12:51:21;;;;;;;;;;;;;;;13.40;55.35;99047.59;4499134;31;34203;-92
2022/11/15 12:53:48;;;;;;;;;;;;;;;14.03;53.79;99050.09;4498174;31;34084;-88
2022/11/15 12:56:16;;;;;;;;;;;;;;;13.07;56.03;99051.91;4499355;31;33763;-93
2022/11/15 12:58:43;;;;;;;;;;;;;;;14.07;53.83;99052.69;4499020;31;34302;-93
2022/11/15 13:01:10;;;;;;;;;;;;;;;13.81;54.03;99057.09;4499331;31;33988;-92
2022/11/15 13:03:57;;;;;;;;;;;;;;;13.98;53.85;99055.34;4498115;31;34221;-88
2022/11/15 13:06:44;;;;;;;;;;;;;;;14.61;52.17;99057.72;4499157;31;34232;-92
2022/11/15 13:09:29;;;;;;;;;;;;;;;13.76;53.84;99057.13;4497967;31;34164;-90
2022/11/15 13:11:57;;;;;;;;;;;;;;;13.97;53.95;99063.13;4499114;31;35116;-87
2022/11/15 13:14:36;;;;;;;;;;;;;;;12.64;57.44;99062.22;4499477;31;33559;-90
2022/11/15 13:17:12;;;;;;;;;;;;;;;12.62;57.45;99050.97;4499486;31;35109;-93
2022/11/15 13:19:40;;;;;;;;;;;;;;;13.08;56.37;99032.81;4497994;31;35017;-88
2022/11/15 13:24:56;;;;;;;;;;;;;;;12.31;58.58;99039.63;4499102;31;33306;-91
2022/11/15 13:27:23;;;;;;;;;;;;;;;12.36;58.51;99040.47;4499161;31;34706;-92
2022/11/15 13:29:50;;;;;;;;;;;;;;;12.89;57.36;99028.47;4497678;31;34134;-93
2022/11/15 13:32:18;;;;;;;;;;;;;;;12.54;58.10;99033.59;4499109;31;34061;-91
2022/11/15 13:34:48;;;;;;;;;;;;;;;13.03;56.50;99018.06;4497938;31;33128;-88
2022/11/15 13:37:21;;;;;;;;;;;;;;;12.13;59.22;99013.53;4497828;31;33751;-87
2022/11/15 13:39:48;;;;;;;;;;;;;;;12.01;59.43;99014.38;4499466;31;34134;-88
2022/11/15 13:42:17;;;;;;;;;;;;;;;12.81;57.32;99012.84;4497988;31;34477;-86
2022/11/15 13:44:55;;;;;;;;;;;;;;;13.28;56.05;99012.03;4498890;31;34025;-89
2022/11/15 13:47:24;;;;;;;;;;;;;;;12.62;57.76;99013.69;4498792;31;33661;-94
2022/11/15 13:49:52;;;;;;;;;;;;;;;12.07;59.28;99016.09;4498772;31;34537;-91
2022/11/15 13:52:19;;;;;;;;;;;;;;;12.21;59.08;99005.78;4498797;31;34274;-87
2022/11/15 13:54:47;;;;;;;;;;;;;;;11.47;61.07;99009.69;4497524;31;33372;-92
2022/11/15 13:57:25;;;;;;;;;;;;;;;11.91;59.85;98989.19;4497340;31;34044;-93
2022/11/15 13:59:53;;;;;;;;;;;;;;;12.08;59.80;98994.44;4498352;31;34232;-93
2022/11/15 14:02:30;;;;;;;;;;;;;;;12.75;57.87;98983.34;4498634;31;33909;-91
2022/11/15 14:04:57;;;;;;;;;;;;;;;13.17;56.42;98981.63;4497357;31;33146;-88
2022/11/15 14:07:25;;;;;;;;;;;;;;;12.38;58.62;98991.09;4498449;31;35020;-87
2022/11/15 14:09:52;;;;;;;;;;;;;;;12.66;57.73;98989.44;4498655;31;35217;-89
2022/11/15 14:12:29;;;;;;;;;;;;;;;12.78;57.27;98988.56;4498461;31;34303;-87
2022/11/15 14:14:57;;;;;;;;;;;;;;;12.99;56.76;98988.56;4498476;31;34155;-89
2022/11/15 14:17:30;;;;;;;;;;;;;;;12.20;58.87;98991.91;4497568;31;33740;-93